Time;durP1;ratioP1;P1;durP2;ratioP2;P2;SDS_P1;SDS_P2;PMS_P1;PMS_P2;Temp;Humidity;BMP_temperature;BMP_pressure;BME280_temperature;BME280_humidity;BME280_pressure;Samples;Min_cycle;Max_cycle;Signal;HPM_P1;HPM_P2
2021/03/26 00:00:14;;;;;;;32.17;16.40;;;7.90;99.90;;;;;;6159470;23;20172;-85
2021/03/26 00:02:39;;;;;;;38.30;19.67;;;7.80;99.90;;;;;;6160394;23;20156;-85
2021/03/26 00:05:10;;;;;;;41.57;19.53;;;7.80;99.90;;;;;;6158825;23;20239;-85
2021/03/26 00:07:36;;;;;;;34.97;17.63;;;7.80;99.90;;;;;;6159346;23;20207;-85
2021/03/26 00:10:03;;;;;;;38.33;17.37;;;7.80;99.90;;;;;;6158691;23;20173;-86
2021/03/26 00:12:28;;;;;;;36.97;17.23;;;7.80;99.90;;;;;;6160654;23;20157;-86
2021/03/26 00:14:54;;;;;;;39.30;18.47;;;7.70;99.90;;;;;;6159323;23;20258;-85
2021/03/26 00:17:21;;;;;;;39.03;19.07;;;7.70;99.90;;;;;;6159036;23;20168;-85
2021/03/26 00:19:46;;;;;;;36.00;17.77;;;7.70;99.90;;;;;;6158626;23;20157;-85
2021/03/26 00:22:12;;;;;;;33.80;17.10;;;7.70;99.90;;;;;;6160589;23;20223;-85
2021/03/26 00:24:37;;;;;;;31.80;16.47;;;7.80;99.90;;;;;;6159282;23;20161;-86
2021/03/26 00:27:03;;;;;;;35.07;18.17;;;7.70;99.90;;;;;;6161044;23;20157;-85
2021/03/26 00:29:28;;;;;;;32.17;17.40;;;7.80;99.90;;;;;;6158079;23;20191;-86
2021/03/26 00:31:54;;;;;;;36.97;18.10;;;7.70;99.90;;;;;;6158868;23;20186;-86
2021/03/26 00:34:20;;;;;;;38.30;18.33;;;7.70;99.90;;;;;;6159188;23;20183;-86
2021/03/26 00:36:46;;;;;;;32.33;16.83;;;7.70;99.90;;;;;;6160642;23;20172;-86
2021/03/26 00:39:12;;;;;;;37.23;17.57;;;7.60;99.90;;;;;;6158504;23;20231;-86
2021/03/26 00:41:38;;;;;;;37.10;17.37;;;7.60;99.90;;;;;;6158570;23;20185;-86
2021/03/26 00:44:03;;;;;;;33.93;17.63;;;7.60;99.90;;;;;;6160909;23;20482;-85
2021/03/26 00:46:30;;;;;;;33.03;16.53;;;7.60;99.90;;;;;;6159415;23;20184;-86
2021/03/26 00:48:55;;;;;;;31.60;15.97;;;7.60;99.90;;;;;;6183836;23;20200;-85
2021/03/26 00:51:21;;;;;;;34.33;16.70;;;7.60;99.90;;;;;;6184072;23;20260;-86
2021/03/26 00:53:47;;;;;;;29.10;14.47;;;7.50;99.90;;;;;;6183594;23;20247;-86
2021/03/26 00:56:12;;;;;;;31.20;14.83;;;7.60;99.90;;;;;;6158771;23;20605;-86
2021/03/26 00:58:38;;;;;;;28.27;12.87;;;7.50;99.90;;;;;;6158528;23;20157;-85
2021/03/26 01:01:04;;;;;;;30.60;14.00;;;7.50;99.90;;;;;;6158620;23;20173;-86
2021/03/26 01:03:31;;;;;;;24.33;13.37;;;7.50;99.90;;;;;;6158351;23;20160;-85
2021/03/26 01:06:02;;;;;;;30.23;14.17;;;7.40;99.90;;;;;;6158543;23;20607;-85
2021/03/26 01:08:28;;;;;;;27.83;13.03;;;7.40;99.90;;;;;;6158565;23;20173;-85
2021/03/26 01:11:09;;;;;;;32.83;13.80;;;7.40;99.90;;;;;;6157826;23;20181;-85
2021/03/26 01:13:35;;;;;;;27.30;13.03;;;7.30;99.90;;;;;;6160389;23;20553;-85
2021/03/26 01:16:01;;;;;;;29.97;12.67;;;7.20;99.90;;;;;;6157841;23;20157;-85
2021/03/26 01:18:31;;;;;;;26.77;12.90;;;7.20;99.90;;;;;;6159245;23;20212;-85
2021/03/26 01:20:58;;;;;;;29.37;13.20;;;7.20;99.90;;;;;;6159023;23;20633;-85
2021/03/26 01:23:25;;;;;;;32.13;12.97;;;7.10;99.90;;;;;;6158445;23;20184;-85
2021/03/26 01:25:51;;;;;;;28.13;12.83;;;7.10;99.90;;;;;;6159537;23;20161;-85
2021/03/26 01:28:20;;;;;;;27.10;11.77;;;7.00;99.90;;;;;;6158568;23;20224;-85
2021/03/26 01:30:47;;;;;;;28.67;13.93;;;7.00;99.90;;;;;;6157643;23;20180;-84
2021/03/26 01:33:14;;;;;;;26.87;12.97;;;6.90;99.90;;;;;;6158027;23;20165;-85
2021/03/26 01:35:39;;;;;;;25.10;13.00;;;6.80;99.90;;;;;;6158416;23;20183;-85
2021/03/26 01:38:06;;;;;;;39.73;14.83;;;6.80;99.90;;;;;;6158060;23;20605;-85
2021/03/26 01:40:44;;;;;;;32.20;13.87;;;6.70;99.90;;;;;;6159920;23;20165;-85
2021/03/26 01:43:26;;;;;;;31.20;14.00;;;6.70;99.90;;;;;;6158071;23;20548;-85
2021/03/26 01:45:52;;;;;;;31.73;14.20;;;6.70;99.90;;;;;;6158990;23;20172;-86
2021/03/26 01:48:32;;;;;;;32.50;15.67;;;6.70;99.90;;;;;;6157984;23;20161;-86
2021/03/26 01:51:00;;;;;;;32.23;15.07;;;6.60;99.90;;;;;;6160903;23;20180;-85
2021/03/26 01:53:26;;;;;;;29.83;14.97;;;6.60;99.90;;;;;;6160395;23;20176;-85
2021/03/26 01:55:54;;;;;;;32.50;15.17;;;6.60;99.90;;;;;;6158932;23;20205;-85
2021/03/26 01:58:23;;;;;;;31.87;16.47;;;6.70;99.90;;;;;;6157834;23;20259;-85
2021/03/26 02:00:55;;;;;;;34.30;17.27;;;6.70;99.90;;;;;;6158337;23;20207;-85
2021/03/26 02:03:22;;;;;;;35.03;16.93;;;6.70;99.90;;;;;;6159235;23;20153;-85
2021/03/26 02:05:50;;;;;;;30.73;16.30;;;6.70;99.90;;;;;;6158987;23;20659;-85
2021/03/26 02:08:19;;;;;;;33.70;17.27;;;6.70;99.90;;;;;;6158554;23;20149;-86
2021/03/26 02:10:45;;;;;;;37.47;18.70;;;6.70;99.90;;;;;;6160423;23;20239;-86
2021/03/26 02:13:21;;;;;;;34.53;18.03;;;6.70;99.90;;;;;;6158748;23;20605;-85
2021/03/26 02:15:48;;;;;;;39.07;18.47;;;6.60;99.90;;;;;;6160248;23;20132;-85
2021/03/26 02:18:22;;;;;;;39.60;17.70;;;6.60;99.90;;;;;;6158019;23;20153;-86
2021/03/26 02:20:52;;;;;;;44.27;18.63;;;6.60;99.90;;;;;;6158671;23;20184;-85
2021/03/26 02:23:24;;;;;;;38.03;18.73;;;6.60;99.90;;;;;;6157744;23;20652;-85
2021/03/26 02:25:50;;;;;;;36.30;18.13;;;6.60;99.90;;;;;;6160062;23;20130;-85
2021/03/26 02:28:16;;;;;;;43.87;20.47;;;6.60;99.90;;;;;;6158540;23;20157;-85
2021/03/26 02:30:46;;;;;;;42.97;20.90;;;6.50;99.90;;;;;;6159344;23;20233;-85
2021/03/26 02:33:12;;;;;;;44.10;21.97;;;6.50;99.90;;;;;;6158900;23;20148;-85
2021/03/26 02:35:41;;;;;;;41.17;20.70;;;6.50;99.90;;;;;;6159420;23;20160;-85
2021/03/26 02:38:27;;;;;;;46.27;22.60;;;6.50;99.90;;;;;;6159839;23;20149;-86
2021/03/26 02:41:05;;;;;;;43.90;21.37;;;6.50;99.90;;;;;;6159429;23;20184;-86
2021/03/26 02:43:55;;;;;;;48.80;22.40;;;6.40;99.90;;;;;;6159666;23;20180;-87
2021/03/26 02:47:06;;;;;;;48.10;22.20;;;6.50;99.90;;;;;;6159469;23;20523;-86
2021/03/26 02:50:05;;;;;;;48.03;21.57;;;6.40;99.90;;;;;;6103600;23;20164;-86
2021/03/26 02:52:48;;;;;;;45.40;22.13;;;6.40;99.90;;;;;;6128028;23;20220;-85
2021/03/26 02:55:39;;;;;;;47.23;22.47;;;6.40;99.90;;;;;;6149648;23;20185;-85
2021/03/26 02:58:14;;;;;;;51.40;22.73;;;6.40;99.90;;;;;;6152945;23;20161;-86
2021/03/26 03:00:47;;;;;;;47.27;23.33;;;6.30;99.90;;;;;;6160957;23;20236;-85
2021/03/26 03:03:16;;;;;;;48.20;24.03;;;6.30;99.90;;;;;;6160187;23;20152;-86
2021/03/26 03:05:46;;;;;;;47.30;23.60;;;6.20;99.90;;;;;;6162353;23;20614;-85
2021/03/26 03:08:20;;;;;;;44.00;22.13;;;6.20;99.90;;;;;;6159663;23;20230;-85
2021/03/26 03:10:53;;;;;;;42.70;21.40;;;6.10;99.90;;;;;;6160429;23;20177;-85
2021/03/26 03:13:25;;;;;;;49.30;21.97;;;6.10;99.90;;;;;;6160141;23;20192;-85
2021/03/26 03:15:59;;;;;;;44.53;21.67;;;6.00;99.90;;;;;;6159673;23;20231;-85
2021/03/26 03:18:39;;;;;;;49.27;23.43;;;6.10;99.90;;;;;;6160015;23;20468;-85
2021/03/26 03:21:34;;;;;;;45.67;22.17;;;6.00;99.90;;;;;;6161464;23;20179;-85
2021/03/26 03:24:21;;;;;;;44.07;20.50;;;6.10;99.90;;;;;;6160192;23;20149;-85
2021/03/26 03:27:02;;;;;;;44.43;21.00;;;6.00;99.90;;;;;;6159708;23;20181;-85
2021/03/26 03:29:32;;;;;;;44.00;22.03;;;6.00;99.90;;;;;;6160088;23;20177;-86
2021/03/26 03:32:27;;;;;;;46.40;22.63;;;5.90;99.90;;;;;;6160019;23;20150;-85
2021/03/26 03:34:59;;;;;;;41.30;19.33;;;6.00;99.90;;;;;;6160113;23;20200;-86
2021/03/26 03:37:44;;;;;;;45.93;22.60;;;5.90;99.90;;;;;;6161896;23;20133;-85
2021/03/26 03:40:29;;;;;;;47.43;22.07;;;5.90;99.90;;;;;;6159612;23;20196;-86
2021/03/26 07:28:56;;;;;;;31.60;14.57;;;7.20;99.90;;;;;;6188887;23;20137;-91
2021/03/26 07:36:06;;;;;;;32.23;15.27;;;7.40;99.90;;;;;;6181712;23;20169;-90
2021/03/26 07:43:10;;;;;;;32.70;15.70;;;7.40;99.90;;;;;;6187096;23;20137;-91
2021/03/26 23:39:29;;;;;;;21.10;12.20;;;10.40;99.90;;;;;;6187482;23;20219;-86
